sensor_id;sensor_type;location;lat;lon;timestamp;P1;durP1;ratioP1;P2;durP2;ratioP2
3101;SDS011;1561;42.666;23.392;2023-11-19T00:02:19;4.10;;;3.70;;
3101;SDS011;1561;42.666;23.392;2023-11-19T00:04:50;4.27;;;3.87;;
3101;SDS011;1561;42.666;23.392;2023-11-19T00:07:16;4.47;;;4.07;;
3101;SDS011;1561;42.666;23.392;2023-11-19T00:09:54;3.33;;;2.80;;
3101;SDS011;1561;42.666;23.392;2023-11-19T00:12:32;4.00;;;3.03;;
3101;SDS011;1561;42.666;23.392;2023-11-19T00:15:02;4.43;;;4.13;;
3101;SDS011;1561;42.666;23.392;2023-11-19T00:17:35;4.20;;;3.77;;
3101;SDS011;1561;42.666;23.392;2023-11-19T00:20:06;3.60;;;2.97;;
3101;SDS011;1561;42.666;23.392;2023-11-19T00:22:35;5.50;;;4.10;;
3101;SDS011;1561;42.666;23.392;2023-11-19T00:25:12;3.67;;;3.33;;
3101;SDS011;1561;42.666;23.392;2023-11-19T00:27:41;3.60;;;3.30;;
3101;SDS011;1561;42.666;23.392;2023-11-19T00:30:17;3.77;;;3.47;;
3101;SDS011;1561;42.666;23.392;2023-11-19T00:32:46;4.37;;;3.97;;
3101;SDS011;1561;42.666;23.392;2023-11-19T00:35:16;3.77;;;3.40;;
3101;SDS011;1561;42.666;23.392;2023-11-19T00:37:45;2.77;;;2.53;;
3101;SDS011;1561;42.666;23.392;2023-11-19T00:40:21;3.87;;;3.50;;
3101;SDS011;1561;42.666;23.392;2023-11-19T00:42:52;3.73;;;3.20;;
3101;SDS011;1561;42.666;23.392;2023-11-19T00:45:28;3.43;;;3.13;;
3101;SDS011;1561;42.666;23.392;2023-11-19T00:48:10;4.30;;;3.90;;
3101;SDS011;1561;42.666;23.392;2023-11-19T00:50:39;4.57;;;4.13;;
3101;SDS011;1561;42.666;23.392;2023-11-19T00:53:11;3.30;;;3.00;;
3101;SDS011;1561;42.666;23.392;2023-11-19T00:55:43;3.63;;;3.33;;
3101;SDS011;1561;42.666;23.392;2023-11-19T00:58:12;4.57;;;4.17;;
3101;SDS011;1561;42.666;23.392;2023-11-19T01:00:43;4.13;;;3.80;;
3101;SDS011;1561;42.666;23.392;2023-11-19T01:03:12;4.57;;;4.17;;
3101;SDS011;1561;42.666;23.392;2023-11-19T01:05:43;4.07;;;3.77;;
3101;SDS011;1561;42.666;23.392;2023-11-19T01:08:12;3.70;;;3.40;;
3101;SDS011;1561;42.666;23.392;2023-11-19T01:10:52;4.37;;;2.90;;
3101;SDS011;1561;42.666;23.392;2023-11-19T01:13:21;3.27;;;2.97;;
3101;SDS011;1561;42.666;23.392;2023-11-19T01:15:49;4.13;;;3.77;;
3101;SDS011;1561;42.666;23.392;2023-11-19T01:18:19;3.83;;;2.97;;
3101;SDS011;1561;42.666;23.392;2023-11-19T01:20:48;3.70;;;3.40;;
3101;SDS011;1561;42.666;23.392;2023-11-19T01:23:15;4.57;;;3.97;;
3101;SDS011;1561;42.666;23.392;2023-11-19T01:25:45;3.30;;;3.00;;
3101;SDS011;1561;42.666;23.392;2023-11-19T01:28:28;4.23;;;3.40;;
3101;SDS011;1561;42.666;23.392;2023-11-19T01:30:57;4.43;;;4.03;;
3101;SDS011;1561;42.666;23.392;2023-11-19T01:33:27;3.10;;;2.87;;
3101;SDS011;1561;42.666;23.392;2023-11-19T01:35:58;4.30;;;3.90;;
3101;SDS011;1561;42.666;23.392;2023-11-19T01:38:27;4.20;;;3.80;;
3101;SDS011;1561;42.666;23.392;2023-11-19T01:40:59;4.30;;;3.87;;
3101;SDS011;1561;42.666;23.392;2023-11-19T01:43:32;4.10;;;3.70;;
3101;SDS011;1561;42.666;23.392;2023-11-19T01:46:00;3.63;;;3.20;;
3101;SDS011;1561;42.666;23.392;2023-11-19T01:48:30;3.63;;;3.33;;
3101;SDS011;1561;42.666;23.392;2023-11-19T01:51:00;5.10;;;3.50;;
3101;SDS011;1561;42.666;23.392;2023-11-19T01:53:30;3.30;;;3.00;;
3101;SDS011;1561;42.666;23.392;2023-11-19T01:56:00;3.37;;;3.07;;
3101;SDS011;1561;42.666;23.392;2023-11-19T01:58:33;3.40;;;3.10;;
3101;SDS011;1561;42.666;23.392;2023-11-19T02:01:04;4.93;;;3.80;;
3101;SDS011;1561;42.666;23.392;2023-11-19T02:03:32;4.40;;;4.00;;
3101;SDS011;1561;42.666;23.392;2023-11-19T02:06:02;4.10;;;3.70;;
3101;SDS011;1561;42.666;23.392;2023-11-19T02:08:35;3.47;;;3.17;;
3101;SDS011;1561;42.666;23.392;2023-11-19T02:11:04;4.10;;;3.47;;
3101;SDS011;1561;42.666;23.392;2023-11-19T02:13:37;6.10;;;2.90;;
3101;SDS011;1561;42.666;23.392;2023-11-19T02:16:09;3.30;;;3.00;;
3101;SDS011;1561;42.666;23.392;2023-11-19T02:18:40;3.27;;;2.97;;
3101;SDS011;1561;42.666;23.392;2023-11-19T02:21:09;3.33;;;3.00;;
3101;SDS011;1561;42.666;23.392;2023-11-19T02:23:38;3.57;;;3.27;;
3101;SDS011;1561;42.666;23.392;2023-11-19T02:26:12;2.60;;;2.40;;
3101;SDS011;1561;42.666;23.392;2023-11-19T02:29:03;2.80;;;2.60;;
3101;SDS011;1561;42.666;23.392;2023-11-19T02:31:44;4.40;;;3.37;;
3101;SDS011;1561;42.666;23.392;2023-11-19T02:34:21;3.10;;;2.80;;
3101;SDS011;1561;42.666;23.392;2023-11-19T02:36:51;3.97;;;3.20;;
3101;SDS011;1561;42.666;23.392;2023-11-19T02:39:20;3.87;;;3.57;;
3101;SDS011;1561;42.666;23.392;2023-11-19T02:41:48;3.40;;;3.10;;
3101;SDS011;1561;42.666;23.392;2023-11-19T02:44:18;3.20;;;2.90;;
3101;SDS011;1561;42.666;23.392;2023-11-19T02:46:48;3.33;;;3.03;;
3101;SDS011;1561;42.666;23.392;2023-11-19T02:49:18;3.10;;;2.80;;
3101;SDS011;1561;42.666;23.392;2023-11-19T02:51:46;4.40;;;3.87;;
3101;SDS011;1561;42.666;23.392;2023-11-19T02:54:13;3.80;;;3.40;;
3101;SDS011;1561;42.666;23.392;2023-11-19T02:56:46;3.97;;;3.50;;
3101;SDS011;1561;42.666;23.392;2023-11-19T02:59:38;3.40;;;3.10;;
3101;SDS011;1561;42.666;23.392;2023-11-19T03:02:09;4.30;;;3.47;;
3101;SDS011;1561;42.666;23.392;2023-11-19T03:04:37;3.60;;;3.30;;
3101;SDS011;1561;42.666;23.392;2023-11-19T03:07:12;3.13;;;2.83;;
3101;SDS011;1561;42.666;23.392;2023-11-19T03:09:39;4.00;;;3.60;;
3101;SDS011;1561;42.666;23.392;2023-11-19T03:12:08;3.83;;;3.47;;
3101;SDS011;1561;42.666;23.392;2023-11-19T03:14:41;4.20;;;3.80;;
3101;SDS011;1561;42.666;23.392;2023-11-19T03:17:13;4.03;;;3.53;;
3101;SDS011;1561;42.666;23.392;2023-11-19T03:19:46;3.43;;;3.13;;
3101;SDS011;1561;42.666;23.392;2023-11-19T03:22:14;4.43;;;3.30;;
3101;SDS011;1561;42.666;23.392;2023-11-19T03:24:46;3.80;;;3.40;;
3101;SDS011;1561;42.666;23.392;2023-11-19T03:27:15;3.60;;;3.30;;
3101;SDS011;1561;42.666;23.392;2023-11-19T03:29:47;3.83;;;3.53;;
3101;SDS011;1561;42.666;23.392;2023-11-19T03:32:14;4.10;;;3.50;;
3101;SDS011;1561;42.666;23.392;2023-11-19T03:34:42;3.97;;;3.63;;
3101;SDS011;1561;42.666;23.392;2023-11-19T03:37:12;8.13;;;3.13;;
3101;SDS011;1561;42.666;23.392;2023-11-19T03:39:44;4.07;;;3.60;;
3101;SDS011;1561;42.666;23.392;2023-11-19T03:42:11;3.37;;;3.07;;
3101;SDS011;1561;42.666;23.392;2023-11-19T03:44:39;3.40;;;3.10;;
3101;SDS011;1561;42.666;23.392;2023-11-19T03:47:08;4.23;;;3.83;;
3101;SDS011;1561;42.666;23.392;2023-11-19T03:49:35;4.60;;;4.00;;
3101;SDS011;1561;42.666;23.392;2023-11-19T03:52:11;4.00;;;3.60;;
3101;SDS011;1561;42.666;23.392;2023-11-19T03:54:38;4.77;;;4.20;;
3101;SDS011;1561;42.666;23.392;2023-11-19T03:57:07;4.40;;;3.97;;
3101;SDS011;1561;42.666;23.392;2023-11-19T03:59:35;4.23;;;3.80;;
3101;SDS011;1561;42.666;23.392;2023-11-19T04:02:03;3.77;;;3.47;;
3101;SDS011;1561;42.666;23.392;2023-11-19T04:04:32;3.30;;;3.00;;
3101;SDS011;1561;42.666;23.392;2023-11-19T04:07:01;3.40;;;2.50;;
3101;SDS011;1561;42.666;23.392;2023-11-19T04:09:29;3.53;;;3.00;;
3101;SDS011;1561;42.666;23.392;2023-11-19T04:11:59;5.57;;;3.47;;
3101;SDS011;1561;42.666;23.392;2023-11-19T04:14:30;3.17;;;2.90;;
3101;SDS011;1561;42.666;23.392;2023-11-19T04:16:59;3.53;;;3.23;;
3101;SDS011;1561;42.666;23.392;2023-11-19T04:19:26;3.40;;;3.03;;
3101;SDS011;1561;42.666;23.392;2023-11-19T04:22:00;3.67;;;3.30;;
3101;SDS011;1561;42.666;23.392;2023-11-19T04:24:28;3.50;;;2.90;;
3101;SDS011;1561;42.666;23.392;2023-11-19T04:26:56;2.93;;;2.73;;
3101;SDS011;1561;42.666;23.392;2023-11-19T04:29:24;3.73;;;3.20;;
3101;SDS011;1561;42.666;23.392;2023-11-19T04:31:52;3.50;;;3.13;;
3101;SDS011;1561;42.666;23.392;2023-11-19T04:34:21;3.10;;;2.40;;
3101;SDS011;1561;42.666;23.392;2023-11-19T04:36:51;3.87;;;3.53;;
3101;SDS011;1561;42.666;23.392;2023-11-19T04:39:22;3.83;;;2.93;;
3101;SDS011;1561;42.666;23.392;2023-11-19T04:41:49;3.33;;;3.03;;
3101;SDS011;1561;42.666;23.392;2023-11-19T04:44:22;4.10;;;3.70;;
3101;SDS011;1561;42.666;23.392;2023-11-19T04:46:49;4.73;;;3.87;;
3101;SDS011;1561;42.666;23.392;2023-11-19T04:49:17;4.00;;;2.87;;
3101;SDS011;1561;42.666;23.392;2023-11-19T04:51:46;8.10;;;3.33;;
3101;SDS011;1561;42.666;23.392;2023-11-19T04:54:14;3.63;;;3.33;;
3101;SDS011;1561;42.666;23.392;2023-11-19T04:56:46;3.50;;;2.70;;
3101;SDS011;1561;42.666;23.392;2023-11-19T04:59:14;4.17;;;3.77;;
3101;SDS011;1561;42.666;23.392;2023-11-19T05:01:41;5.00;;;3.77;;
3101;SDS011;1561;42.666;23.392;2023-11-19T05:04:13;3.87;;;3.43;;
3101;SDS011;1561;42.666;23.392;2023-11-19T05:06:44;4.00;;;3.60;;
3101;SDS011;1561;42.666;23.392;2023-11-19T05:09:13;4.53;;;3.63;;
3101;SDS011;1561;42.666;23.392;2023-11-19T05:11:41;3.20;;;2.90;;
3101;SDS011;1561;42.666;23.392;2023-11-19T05:14:17;4.20;;;3.80;;
3101;SDS011;1561;42.666;23.392;2023-11-19T05:16:45;3.23;;;2.50;;
3101;SDS011;1561;42.666;23.392;2023-11-19T05:19:16;4.90;;;3.73;;
3101;SDS011;1561;42.666;23.392;2023-11-19T05:21:47;4.30;;;3.90;;
3101;SDS011;1561;42.666;23.392;2023-11-19T05:24:20;3.87;;;3.33;;
3101;SDS011;1561;42.666;23.392;2023-11-19T05:26:49;3.00;;;2.57;;
3101;SDS011;1561;42.666;23.392;2023-11-19T05:29:29;4.10;;;3.40;;
3101;SDS011;1561;42.666;23.392;2023-11-19T05:31:56;4.00;;;3.30;;
3101;SDS011;1561;42.666;23.392;2023-11-19T05:34:25;3.13;;;2.80;;
3101;SDS011;1561;42.666;23.392;2023-11-19T05:36:56;3.63;;;3.33;;
3101;SDS011;1561;42.666;23.392;2023-11-19T05:39:24;3.80;;;3.40;;
3101;SDS011;1561;42.666;23.392;2023-11-19T05:41:53;2.70;;;2.50;;
3101;SDS011;1561;42.666;23.392;2023-11-19T05:44:24;3.97;;;3.33;;
3101;SDS011;1561;42.666;23.392;2023-11-19T05:46:55;4.27;;;3.73;;
3101;SDS011;1561;42.666;23.392;2023-11-19T05:49:25;1.97;;;1.83;;
3101;SDS011;1561;42.666;23.392;2023-11-19T05:51:57;10.00;;;2.90;;
3101;SDS011;1561;42.666;23.392;2023-11-19T05:54:37;4.03;;;3.70;;
3101;SDS011;1561;42.666;23.392;2023-11-19T05:57:10;3.87;;;3.57;;
3101;SDS011;1561;42.666;23.392;2023-11-19T05:59:41;3.33;;;2.80;;
3101;SDS011;1561;42.666;23.392;2023-11-19T06:02:09;4.50;;;3.80;;
3101;SDS011;1561;42.666;23.392;2023-11-19T06:04:44;3.60;;;2.90;;
3101;SDS011;1561;42.666;23.392;2023-11-19T06:07:19;3.00;;;2.70;;
3101;SDS011;1561;42.666;23.392;2023-11-19T06:09:47;4.03;;;2.83;;
3101;SDS011;1561;42.666;23.392;2023-11-19T06:12:20;4.00;;;3.00;;
3101;SDS011;1561;42.666;23.392;2023-11-19T06:14:49;4.20;;;3.80;;
3101;SDS011;1561;42.666;23.392;2023-11-19T06:17:21;3.40;;;3.10;;
3101;SDS011;1561;42.666;23.392;2023-11-19T06:19:49;3.73;;;3.37;;
3101;SDS011;1561;42.666;23.392;2023-11-19T06:22:16;4.43;;;4.03;;
3101;SDS011;1561;42.666;23.392;2023-11-19T06:24:46;4.67;;;3.40;;
3101;SDS011;1561;42.666;23.392;2023-11-19T06:27:17;3.70;;;3.30;;
3101;SDS011;1561;42.666;23.392;2023-11-19T06:29:44;4.40;;;3.47;;
3101;SDS011;1561;42.666;23.392;2023-11-19T06:32:15;3.43;;;3.13;;
3101;SDS011;1561;42.666;23.392;2023-11-19T06:34:45;4.10;;;3.80;;
3101;SDS011;1561;42.666;23.392;2023-11-19T06:37:16;4.63;;;3.80;;
3101;SDS011;1561;42.666;23.392;2023-11-19T06:39:46;4.07;;;3.67;;
3101;SDS011;1561;42.666;23.392;2023-11-19T06:42:23;3.37;;;3.03;;
3101;SDS011;1561;42.666;23.392;2023-11-19T06:44:54;5.00;;;4.50;;
3101;SDS011;1561;42.666;23.392;2023-11-19T06:47:24;4.43;;;3.77;;
3101;SDS011;1561;42.666;23.392;2023-11-19T06:49:56;5.53;;;4.20;;
3101;SDS011;1561;42.666;23.392;2023-11-19T06:52:25;6.90;;;4.50;;
3101;SDS011;1561;42.666;23.392;2023-11-19T06:54:54;5.47;;;4.43;;
3101;SDS011;1561;42.666;23.392;2023-11-19T06:57:29;4.87;;;3.40;;
3101;SDS011;1561;42.666;23.392;2023-11-19T07:00:18;4.17;;;3.77;;
3101;SDS011;1561;42.666;23.392;2023-11-19T07:02:59;2.97;;;2.17;;
3101;SDS011;1561;42.666;23.392;2023-11-19T07:05:31;3.60;;;2.80;;
3101;SDS011;1561;42.666;23.392;2023-11-19T07:08:10;2.80;;;2.60;;
3101;SDS011;1561;42.666;23.392;2023-11-19T07:10:40;4.33;;;2.53;;
3101;SDS011;1561;42.666;23.392;2023-11-19T07:13:13;4.70;;;3.87;;
3101;SDS011;1561;42.666;23.392;2023-11-19T07:15:46;3.07;;;2.77;;
3101;SDS011;1561;42.666;23.392;2023-11-19T07:21:00;3.70;;;3.37;;
3101;SDS011;1561;42.666;23.392;2023-11-19T07:23:30;3.37;;;3.00;;
3101;SDS011;1561;42.666;23.392;2023-11-19T07:26:00;4.97;;;4.17;;
3101;SDS011;1561;42.666;23.392;2023-11-19T07:28:37;4.23;;;3.80;;
3101;SDS011;1561;42.666;23.392;2023-11-19T07:31:08;4.67;;;4.17;;
3101;SDS011;1561;42.666;23.392;2023-11-19T07:33:40;5.13;;;3.77;;
3101;SDS011;1561;42.666;23.392;2023-11-19T07:36:16;4.87;;;4.37;;
3101;SDS011;1561;42.666;23.392;2023-11-19T07:38:59;4.70;;;3.30;;
3101;SDS011;1561;42.666;23.392;2023-11-19T07:42:03;5.10;;;3.27;;
3101;SDS011;1561;42.666;23.392;2023-11-19T07:44:38;3.57;;;2.90;;
3101;SDS011;1561;42.666;23.392;2023-11-19T07:47:16;4.87;;;4.20;;
3101;SDS011;1561;42.666;23.392;2023-11-19T07:49:53;5.57;;;4.67;;
3101;SDS011;1561;42.666;23.392;2023-11-19T07:52:21;5.30;;;3.63;;
3101;SDS011;1561;42.666;23.392;2023-11-19T07:55:17;3.83;;;3.53;;
3101;SDS011;1561;42.666;23.392;2023-11-19T07:58:04;4.07;;;2.60;;
3101;SDS011;1561;42.666;23.392;2023-11-19T08:00:36;4.40;;;3.90;;
3101;SDS011;1561;42.666;23.392;2023-11-19T08:03:14;4.00;;;3.27;;
3101;SDS011;1561;42.666;23.392;2023-11-19T08:05:48;4.07;;;3.67;;
3101;SDS011;1561;42.666;23.392;2023-11-19T08:08:22;4.87;;;4.00;;
3101;SDS011;1561;42.666;23.392;2023-11-19T08:11:08;5.50;;;3.63;;
3101;SDS011;1561;42.666;23.392;2023-11-19T08:13:41;4.67;;;3.50;;
3101;SDS011;1561;42.666;23.392;2023-11-19T08:16:11;4.53;;;4.13;;
3101;SDS011;1561;42.666;23.392;2023-11-19T08:18:43;4.63;;;3.43;;
3101;SDS011;1561;42.666;23.392;2023-11-19T08:21:10;5.63;;;3.70;;
3101;SDS011;1561;42.666;23.392;2023-11-19T08:23:39;4.23;;;2.97;;
3101;SDS011;1561;42.666;23.392;2023-11-19T08:26:08;4.27;;;3.70;;
3101;SDS011;1561;42.666;23.392;2023-11-19T08:28:41;4.23;;;3.83;;
3101;SDS011;1561;42.666;23.392;2023-11-19T08:31:17;5.50;;;4.03;;
3101;SDS011;1561;42.666;23.392;2023-11-19T08:33:51;3.77;;;3.33;;
3101;SDS011;1561;42.666;23.392;2023-11-19T08:36:37;3.93;;;3.60;;
3101;SDS011;1561;42.666;23.392;2023-11-19T08:39:43;5.63;;;4.07;;
3101;SDS011;1561;42.666;23.392;2023-11-19T08:45:06;4.70;;;3.40;;
3101;SDS011;1561;42.666;23.392;2023-11-19T08:47:36;3.90;;;3.60;;
3101;SDS011;1561;42.666;23.392;2023-11-19T08:50:08;5.10;;;4.60;;
3101;SDS011;1561;42.666;23.392;2023-11-19T08:52:36;4.30;;;3.90;;
3101;SDS011;1561;42.666;23.392;2023-11-19T08:55:06;3.73;;;3.43;;
3101;SDS011;1561;42.666;23.392;2023-11-19T08:57:46;4.47;;;4.17;;
3101;SDS011;1561;42.666;23.392;2023-11-19T09:00:13;4.00;;;3.60;;
3101;SDS011;1561;42.666;23.392;2023-11-19T09:02:45;4.30;;;3.90;;
3101;SDS011;1561;42.666;23.392;2023-11-19T09:05:14;5.00;;;4.50;;
3101;SDS011;1561;42.666;23.392;2023-11-19T09:07:43;3.77;;;3.20;;
3101;SDS011;1561;42.666;23.392;2023-11-19T09:10:14;3.73;;;3.43;;
3101;SDS011;1561;42.666;23.392;2023-11-19T09:12:46;4.20;;;3.80;;
3101;SDS011;1561;42.666;23.392;2023-11-19T09:15:17;4.90;;;4.00;;
3101;SDS011;1561;42.666;23.392;2023-11-19T09:17:45;5.17;;;3.87;;
3101;SDS011;1561;42.666;23.392;2023-11-19T09:20:13;3.63;;;3.03;;
3101;SDS011;1561;42.666;23.392;2023-11-19T09:22:44;5.00;;;3.90;;
3101;SDS011;1561;42.666;23.392;2023-11-19T09:25:19;11.37;;;6.50;;
3101;SDS011;1561;42.666;23.392;2023-11-19T09:27:50;11.27;;;3.80;;
3101;SDS011;1561;42.666;23.392;2023-11-19T09:30:25;6.80;;;5.57;;
3101;SDS011;1561;42.666;23.392;2023-11-19T09:32:54;8.07;;;4.90;;
3101;SDS011;1561;42.666;23.392;2023-11-19T09:35:23;4.70;;;3.43;;
3101;SDS011;1561;42.666;23.392;2023-11-19T09:37:55;3.80;;;3.40;;
3101;SDS011;1561;42.666;23.392;2023-11-19T09:40:23;4.10;;;3.70;;
3101;SDS011;1561;42.666;23.392;2023-11-19T09:42:54;4.50;;;4.10;;
3101;SDS011;1561;42.666;23.392;2023-11-19T09:45:25;6.47;;;4.10;;
3101;SDS011;1561;42.666;23.392;2023-11-19T09:47:57;3.37;;;3.07;;
3101;SDS011;1561;42.666;23.392;2023-11-19T09:50:30;4.23;;;3.83;;
3101;SDS011;1561;42.666;23.392;2023-11-19T09:53:00;5.90;;;5.30;;
3101;SDS011;1561;42.666;23.392;2023-11-19T09:55:30;4.90;;;4.40;;
3101;SDS011;1561;42.666;23.392;2023-11-19T09:58:00;5.23;;;4.50;;
3101;SDS011;1561;42.666;23.392;2023-11-19T10:00:31;3.80;;;3.40;;
3101;SDS011;1561;42.666;23.392;2023-11-19T10:02:58;3.80;;;3.40;;
3101;SDS011;1561;42.666;23.392;2023-11-19T10:05:41;3.30;;;3.00;;
3101;SDS011;1561;42.666;23.392;2023-11-19T10:08:12;4.87;;;4.20;;
3101;SDS011;1561;42.666;23.392;2023-11-19T10:10:45;4.03;;;3.73;;
3101;SDS011;1561;42.666;23.392;2023-11-19T10:13:26;9.77;;;4.17;;
3101;SDS011;1561;42.666;23.392;2023-11-19T10:15:58;5.03;;;4.63;;
3101;SDS011;1561;42.666;23.392;2023-11-19T10:18:30;4.50;;;4.20;;
3101;SDS011;1561;42.666;23.392;2023-11-19T10:21:06;4.20;;;3.80;;
3101;SDS011;1561;42.666;23.392;2023-11-19T10:23:48;4.67;;;4.03;;
3101;SDS011;1561;42.666;23.392;2023-11-19T10:26:17;4.50;;;4.20;;
3101;SDS011;1561;42.666;23.392;2023-11-19T10:28:48;3.90;;;3.60;;
3101;SDS011;1561;42.666;23.392;2023-11-19T10:31:16;4.30;;;3.70;;
3101;SDS011;1561;42.666;23.392;2023-11-19T10:33:49;4.10;;;3.80;;
3101;SDS011;1561;42.666;23.392;2023-11-19T10:36:22;4.93;;;4.53;;
3101;SDS011;1561;42.666;23.392;2023-11-19T10:39:09;5.50;;;5.00;;
3101;SDS011;1561;42.666;23.392;2023-11-19T10:41:45;4.80;;;4.40;;
3101;SDS011;1561;42.666;23.392;2023-11-19T10:47:07;4.40;;;4.00;;
3101;SDS011;1561;42.666;23.392;2023-11-19T10:49:37;3.90;;;3.60;;
3101;SDS011;1561;42.666;23.392;2023-11-19T10:52:05;3.97;;;3.67;;
3101;SDS011;1561;42.666;23.392;2023-11-19T10:54:37;3.87;;;3.57;;
3101;SDS011;1561;42.666;23.392;2023-11-19T10:57:12;4.20;;;3.80;;
3101;SDS011;1561;42.666;23.392;2023-11-19T10:59:48;3.37;;;3.07;;
3101;SDS011;1561;42.666;23.392;2023-11-19T11:02:29;4.20;;;3.87;;
3101;SDS011;1561;42.666;23.392;2023-11-19T11:05:07;5.00;;;3.33;;
3101;SDS011;1561;42.666;23.392;2023-11-19T11:08:05;4.17;;;3.67;;
3101;SDS011;1561;42.666;23.392;2023-11-19T11:10:34;4.20;;;3.80;;
3101;SDS011;1561;42.666;23.392;2023-11-19T11:13:07;3.70;;;3.40;;
3101;SDS011;1561;42.666;23.392;2023-11-19T11:15:38;4.27;;;3.87;;
3101;SDS011;1561;42.666;23.392;2023-11-19T11:18:16;3.20;;;2.90;;
3101;SDS011;1561;42.666;23.392;2023-11-19T11:20:46;5.87;;;2.60;;
3101;SDS011;1561;42.666;23.392;2023-11-19T11:26:50;3.57;;;3.30;;
3101;SDS011;1561;42.666;23.392;2023-11-19T11:29:46;3.93;;;3.63;;
3101;SDS011;1561;42.666;23.392;2023-11-19T11:32:31;4.80;;;2.90;;
3101;SDS011;1561;42.666;23.392;2023-11-19T11:35:22;3.93;;;3.57;;
3101;SDS011;1561;42.666;23.392;2023-11-19T11:38:04;2.93;;;2.73;;
3101;SDS011;1561;42.666;23.392;2023-11-19T11:40:38;4.00;;;3.70;;
3101;SDS011;1561;42.666;23.392;2023-11-19T11:49:40;2.63;;;2.40;;
3101;SDS011;1561;42.666;23.392;2023-11-19T11:52:22;2.70;;;2.50;;
3101;SDS011;1561;42.666;23.392;2023-11-19T11:55:14;8.70;;;6.00;;
3101;SDS011;1561;42.666;23.392;2023-11-19T11:57:41;6.47;;;5.17;;
3101;SDS011;1561;42.666;23.392;2023-11-19T12:00:12;11.20;;;7.73;;
3101;SDS011;1561;42.666;23.392;2023-11-19T12:02:49;2.57;;;2.37;;
3101;SDS011;1561;42.666;23.392;2023-11-19T12:05:24;5.13;;;4.63;;
3101;SDS011;1561;42.666;23.392;2023-11-19T12:07:56;4.80;;;4.33;;
3101;SDS011;1561;42.666;23.392;2023-11-19T12:10:30;5.00;;;4.60;;
3101;SDS011;1561;42.666;23.392;2023-11-19T12:13:00;6.93;;;3.03;;
3101;SDS011;1561;42.666;23.392;2023-11-19T12:15:33;3.30;;;3.00;;
3101;SDS011;1561;42.666;23.392;2023-11-19T12:18:39;4.70;;;3.60;;
3101;SDS011;1561;42.666;23.392;2023-11-19T12:21:09;4.57;;;4.03;;
3101;SDS011;1561;42.666;23.392;2023-11-19T12:23:57;6.90;;;4.60;;
3101;SDS011;1561;42.666;23.392;2023-11-19T12:26:37;4.23;;;3.70;;
3101;SDS011;1561;42.666;23.392;2023-11-19T12:29:08;3.97;;;3.67;;
3101;SDS011;1561;42.666;23.392;2023-11-19T12:31:44;8.03;;;4.20;;
3101;SDS011;1561;42.666;23.392;2023-11-19T12:34:14;5.00;;;4.00;;
3101;SDS011;1561;42.666;23.392;2023-11-19T12:36:54;7.57;;;4.43;;
3101;SDS011;1561;42.666;23.392;2023-11-19T12:39:41;7.90;;;4.40;;
3101;SDS011;1561;42.666;23.392;2023-11-19T12:42:14;5.77;;;4.33;;
3101;SDS011;1561;42.666;23.392;2023-11-19T12:44:55;12.50;;;7.60;;
3101;SDS011;1561;42.666;23.392;2023-11-19T12:47:28;3.93;;;3.53;;
3101;SDS011;1561;42.666;23.392;2023-11-19T12:49:59;5.70;;;3.70;;
3101;SDS011;1561;42.666;23.392;2023-11-19T12:52:39;5.33;;;4.07;;
3101;SDS011;1561;42.666;23.392;2023-11-19T12:57:59;3.93;;;2.83;;
3101;SDS011;1561;42.666;23.392;2023-11-19T13:00:34;3.80;;;3.40;;
3101;SDS011;1561;42.666;23.392;2023-11-19T13:03:12;3.90;;;3.30;;
3101;SDS011;1561;42.666;23.392;2023-11-19T13:05:39;3.37;;;2.70;;
3101;SDS011;1561;42.666;23.392;2023-11-19T13:08:14;4.53;;;3.47;;
3101;SDS011;1561;42.666;23.392;2023-11-19T13:14:00;4.40;;;3.53;;
3101;SDS011;1561;42.666;23.392;2023-11-19T13:16:30;6.43;;;5.53;;
3101;SDS011;1561;42.666;23.392;2023-11-19T13:18:59;4.53;;;4.13;;
3101;SDS011;1561;42.666;23.392;2023-11-19T13:21:28;4.33;;;3.93;;
3101;SDS011;1561;42.666;23.392;2023-11-19T13:23:57;4.40;;;4.00;;
3101;SDS011;1561;42.666;23.392;2023-11-19T13:26:39;4.90;;;3.60;;
3101;SDS011;1561;42.666;23.392;2023-11-19T13:29:37;4.80;;;4.10;;
3101;SDS011;1561;42.666;23.392;2023-11-19T13:32:05;7.77;;;5.50;;
3101;SDS011;1561;42.666;23.392;2023-11-19T13:34:36;7.93;;;4.60;;
3101;SDS011;1561;42.666;23.392;2023-11-19T13:37:23;11.40;;;6.77;;
3101;SDS011;1561;42.666;23.392;2023-11-19T13:39:53;7.07;;;4.67;;
3101;SDS011;1561;42.666;23.392;2023-11-19T13:42:31;6.83;;;4.60;;
3101;SDS011;1561;42.666;23.392;2023-11-19T13:44:58;5.43;;;4.93;;
3101;SDS011;1561;42.666;23.392;2023-11-19T13:47:36;8.13;;;5.20;;
3101;SDS011;1561;42.666;23.392;2023-11-19T13:50:09;5.97;;;4.97;;
3101;SDS011;1561;42.666;23.392;2023-11-19T13:52:55;5.00;;;3.37;;
3101;SDS011;1561;42.666;23.392;2023-11-19T13:55:23;5.97;;;5.17;;
3101;SDS011;1561;42.666;23.392;2023-11-19T14:00:43;7.23;;;5.50;;
3101;SDS011;1561;42.666;23.392;2023-11-19T14:03:29;4.10;;;3.50;;
3101;SDS011;1561;42.666;23.392;2023-11-19T14:06:02;5.03;;;4.50;;
3101;SDS011;1561;42.666;23.392;2023-11-19T14:08:52;5.47;;;4.17;;
3101;SDS011;1561;42.666;23.392;2023-11-19T14:11:51;4.90;;;3.53;;
3101;SDS011;1561;42.666;23.392;2023-11-19T14:14:34;6.60;;;4.87;;
3101;SDS011;1561;42.666;23.392;2023-11-19T14:17:33;8.77;;;4.87;;
3101;SDS011;1561;42.666;23.392;2023-11-19T14:20:03;8.73;;;4.80;;
3101;SDS011;1561;42.666;23.392;2023-11-19T14:22:47;14.93;;;5.53;;
3101;SDS011;1561;42.666;23.392;2023-11-19T14:25:19;8.07;;;6.20;;
3101;SDS011;1561;42.666;23.392;2023-11-19T14:28:05;10.70;;;6.70;;
3101;SDS011;1561;42.666;23.392;2023-11-19T14:30:45;6.60;;;5.73;;
3101;SDS011;1561;42.666;23.392;2023-11-19T14:33:26;6.47;;;4.40;;
3101;SDS011;1561;42.666;23.392;2023-11-19T14:36:11;6.63;;;5.30;;
3101;SDS011;1561;42.666;23.392;2023-11-19T14:38:49;6.80;;;4.93;;
3101;SDS011;1561;42.666;23.392;2023-11-19T14:41:18;5.70;;;4.90;;
3101;SDS011;1561;42.666;23.392;2023-11-19T14:44:09;7.50;;;4.77;;
3101;SDS011;1561;42.666;23.392;2023-11-19T14:49:34;6.00;;;4.50;;
3101;SDS011;1561;42.666;23.392;2023-11-19T14:52:04;6.03;;;5.20;;
3101;SDS011;1561;42.666;23.392;2023-11-19T14:54:36;7.67;;;4.83;;
3101;SDS011;1561;42.666;23.392;2023-11-19T14:57:23;15.03;;;6.20;;
3101;SDS011;1561;42.666;23.392;2023-11-19T14:59:52;5.70;;;5.10;;
3101;SDS011;1561;42.666;23.392;2023-11-19T15:02:23;6.77;;;5.43;;
3101;SDS011;1561;42.666;23.392;2023-11-19T15:04:54;6.10;;;5.33;;
3101;SDS011;1561;42.666;23.392;2023-11-19T15:07:28;6.20;;;5.30;;
3101;SDS011;1561;42.666;23.392;2023-11-19T15:10:03;6.00;;;4.57;;
3101;SDS011;1561;42.666;23.392;2023-11-19T15:12:41;6.60;;;5.57;;
3101;SDS011;1561;42.666;23.392;2023-11-19T15:15:12;6.50;;;4.90;;
3101;SDS011;1561;42.666;23.392;2023-11-19T15:17:49;9.97;;;6.20;;
3101;SDS011;1561;42.666;23.392;2023-11-19T15:20:16;7.23;;;5.90;;
3101;SDS011;1561;42.666;23.392;2023-11-19T15:22:51;9.13;;;6.23;;
3101;SDS011;1561;42.666;23.392;2023-11-19T15:25:20;7.37;;;6.37;;
3101;SDS011;1561;42.666;23.392;2023-11-19T15:28:02;6.67;;;5.57;;
3101;SDS011;1561;42.666;23.392;2023-11-19T15:30:36;10.70;;;6.33;;
3101;SDS011;1561;42.666;23.392;2023-11-19T15:33:16;9.47;;;6.97;;
3101;SDS011;1561;42.666;23.392;2023-11-19T15:35:44;9.27;;;6.07;;
3101;SDS011;1561;42.666;23.392;2023-11-19T15:38:18;8.33;;;5.73;;
3101;SDS011;1561;42.666;23.392;2023-11-19T15:41:11;6.43;;;5.53;;
3101;SDS011;1561;42.666;23.392;2023-11-19T15:43:58;9.83;;;6.67;;
3101;SDS011;1561;42.666;23.392;2023-11-19T15:46:35;8.67;;;6.97;;
3101;SDS011;1561;42.666;23.392;2023-11-19T15:49:14;10.00;;;7.37;;
3101;SDS011;1561;42.666;23.392;2023-11-19T15:51:48;7.47;;;6.53;;
3101;SDS011;1561;42.666;23.392;2023-11-19T15:54:18;10.87;;;8.30;;
3101;SDS011;1561;42.666;23.392;2023-11-19T15:56:47;11.10;;;7.60;;
3101;SDS011;1561;42.666;23.392;2023-11-19T15:59:28;10.10;;;7.23;;
3101;SDS011;1561;42.666;23.392;2023-11-19T16:02:09;13.50;;;8.83;;
3101;SDS011;1561;42.666;23.392;2023-11-19T16:05:00;9.60;;;7.20;;
3101;SDS011;1561;42.666;23.392;2023-11-19T16:07:35;10.20;;;8.30;;
3101;SDS011;1561;42.666;23.392;2023-11-19T16:10:33;15.27;;;9.37;;